sensor_id;sensor_type;location;lat;lon;timestamp;temperature;humidity
39453;DHT22;25154;-33.684;151.102;2023-01-29T00:01:20;29.60;99.90
39453;DHT22;25154;-33.684;151.102;2023-01-29T00:06:22;29.70;99.90
39453;DHT22;25154;-33.684;151.102;2023-01-29T00:11:25;30.20;99.90
39453;DHT22;25154;-33.684;151.102;2023-01-29T00:16:27;29.60;99.90
39453;DHT22;25154;-33.684;151.102;2023-01-29T00:21:31;29.20;99.90
39453;DHT22;25154;-33.684;151.102;2023-01-29T00:26:34;30.00;99.90
39453;DHT22;25154;-33.684;151.102;2023-01-29T00:31:39;30.80;99.90
39453;DHT22;25154;-33.684;151.102;2023-01-29T00:36:45;31.20;99.90
39453;DHT22;25154;-33.684;151.102;2023-01-29T00:41:47;31.30;99.90
39453;DHT22;25154;-33.684;151.102;2023-01-29T00:47:07;31.70;99.90
39453;DHT22;25154;-33.684;151.102;2023-01-29T00:52:29;32.30;99.90
39453;DHT22;25154;-33.684;151.102;2023-01-29T00:57:33;32.80;99.90
39453;DHT22;25154;-33.684;151.102;2023-01-29T01:02:36;33.00;99.90
39453;DHT22;25154;-33.684;151.102;2023-01-29T01:07:57;33.50;99.90
39453;DHT22;25154;-33.684;151.102;2023-01-29T01:13:02;34.00;99.90
39453;DHT22;25154;-33.684;151.102;2023-01-29T01:18:05;34.30;99.90
39453;DHT22;25154;-33.684;151.102;2023-01-29T01:23:08;34.80;99.90
39453;DHT22;25154;-33.684;151.102;2023-01-29T01:28:10;35.30;99.90
39453;DHT22;25154;-33.684;151.102;2023-01-29T01:33:12;35.60;99.90
39453;DHT22;25154;-33.684;151.102;2023-01-29T01:38:15;36.00;99.90
39453;DHT22;25154;-33.684;151.102;2023-01-29T01:43:17;36.60;99.90
39453;DHT22;25154;-33.684;151.102;2023-01-29T01:48:24;37.10;99.90
39453;DHT22;25154;-33.684;151.102;2023-01-29T01:53:57;37.50;99.90
39453;DHT22;25154;-33.684;151.102;2023-01-29T01:59:03;36.80;99.90
39453;DHT22;25154;-33.684;151.102;2023-01-29T02:04:21;36.10;99.90
39453;DHT22;25154;-33.684;151.102;2023-01-29T02:14:48;37.80;99.90
39453;DHT22;25154;-33.684;151.102;2023-01-29T02:20:23;38.40;99.90
39453;DHT22;25154;-33.684;151.102;2023-01-29T02:31:38;37.40;99.90
39453;DHT22;25154;-33.684;151.102;2023-01-29T02:36:51;37.20;99.90
39453;DHT22;25154;-33.684;151.102;2023-01-29T02:47:23;38.00;99.90
39453;DHT22;25154;-33.684;151.102;2023-01-29T02:52:39;37.80;99.90
39453;DHT22;25154;-33.684;151.102;2023-01-29T02:57:46;37.10;99.90
39453;DHT22;25154;-33.684;151.102;2023-01-29T03:03:19;37.50;99.90
39453;DHT22;25154;-33.684;151.102;2023-01-29T03:08:41;38.00;99.90
39453;DHT22;25154;-33.684;151.102;2023-01-29T03:13:51;36.80;99.90
39453;DHT22;25154;-33.684;151.102;2023-01-29T03:19:15;34.40;99.90
39453;DHT22;25154;-33.684;151.102;2023-01-29T03:24:42;35.70;99.90
39453;DHT22;25154;-33.684;151.102;2023-01-29T03:30:08;36.50;99.90
39453;DHT22;25154;-33.684;151.102;2023-01-29T03:35:35;37.40;99.90
39453;DHT22;25154;-33.684;151.102;2023-01-29T03:41:07;37.30;99.90
39453;DHT22;25154;-33.684;151.102;2023-01-29T03:46:28;35.00;99.90
39453;DHT22;25154;-33.684;151.102;2023-01-29T03:52:06;35.00;99.90
39453;DHT22;25154;-33.684;151.102;2023-01-29T03:57:38;34.50;99.90
39453;DHT22;25154;-33.684;151.102;2023-01-29T04:07:53;32.40;99.90
39453;DHT22;25154;-33.684;151.102;2023-01-29T04:13:03;31.30;99.90
39453;DHT22;25154;-33.684;151.102;2023-01-29T04:18:06;30.40;99.90
39453;DHT22;25154;-33.684;151.102;2023-01-29T04:23:23;29.70;99.90
39453;DHT22;25154;-33.684;151.102;2023-01-29T04:28:32;29.00;99.90
39453;DHT22;25154;-33.684;151.102;2023-01-29T04:39:24;28.40;99.90
39453;DHT22;25154;-33.684;151.102;2023-01-29T04:49:36;27.90;99.90
39453;DHT22;25154;-33.684;151.102;2023-01-29T04:55:05;27.60;99.90
39453;DHT22;25154;-33.684;151.102;2023-01-29T05:00:19;25.90;99.90
39453;DHT22;25154;-33.684;151.102;2023-01-29T05:05:22;24.60;99.90
39453;DHT22;25154;-33.684;151.102;2023-01-29T05:10:25;23.30;99.90
39453;DHT22;25154;-33.684;151.102;2023-01-29T05:16:01;22.60;99.90
39453;DHT22;25154;-33.684;151.102;2023-01-29T05:21:07;22.20;99.90
39453;DHT22;25154;-33.684;151.102;2023-01-29T05:26:10;22.10;99.90
39453;DHT22;25154;-33.684;151.102;2023-01-29T05:31:30;21.90;99.90
39453;DHT22;25154;-33.684;151.102;2023-01-29T05:36:32;22.20;99.90
39453;DHT22;25154;-33.684;151.102;2023-01-29T05:41:35;22.20;99.90
39453;DHT22;25154;-33.684;151.102;2023-01-29T05:46:37;22.20;99.90
39453;DHT22;25154;-33.684;151.102;2023-01-29T05:51:40;22.60;99.90
39453;DHT22;25154;-33.684;151.102;2023-01-29T05:56:42;22.40;99.90
39453;DHT22;25154;-33.684;151.102;2023-01-29T06:01:44;22.40;99.90
39453;DHT22;25154;-33.684;151.102;2023-01-29T06:06:47;22.40;99.90
39453;DHT22;25154;-33.684;151.102;2023-01-29T06:11:49;22.40;99.90
39453;DHT22;25154;-33.684;151.102;2023-01-29T06:16:51;22.40;99.90
39453;DHT22;25154;-33.684;151.102;2023-01-29T06:21:54;22.50;99.90
39453;DHT22;25154;-33.684;151.102;2023-01-29T06:26:56;22.50;99.90
39453;DHT22;25154;-33.684;151.102;2023-01-29T06:31:58;22.40;99.90
39453;DHT22;25154;-33.684;151.102;2023-01-29T06:37:01;22.30;99.90
39453;DHT22;25154;-33.684;151.102;2023-01-29T06:42:04;22.40;99.90
39453;DHT22;25154;-33.684;151.102;2023-01-29T06:47:06;22.30;99.90
39453;DHT22;25154;-33.684;151.102;2023-01-29T06:52:10;22.30;99.90
39453;DHT22;25154;-33.684;151.102;2023-01-29T06:57:13;22.40;99.90
39453;DHT22;25154;-33.684;151.102;2023-01-29T07:02:16;22.30;99.90
39453;DHT22;25154;-33.684;151.102;2023-01-29T07:07:20;22.40;99.90
39453;DHT22;25154;-33.684;151.102;2023-01-29T07:12:24;22.40;99.90
39453;DHT22;25154;-33.684;151.102;2023-01-29T07:17:27;22.50;99.90
39453;DHT22;25154;-33.684;151.102;2023-01-29T07:22:29;22.50;99.90
39453;DHT22;25154;-33.684;151.102;2023-01-29T07:27:32;22.60;99.90
39453;DHT22;25154;-33.684;151.102;2023-01-29T07:32:34;22.50;99.90
39453;DHT22;25154;-33.684;151.102;2023-01-29T07:37:36;22.40;99.90
39453;DHT22;25154;-33.684;151.102;2023-01-29T07:42:39;22.50;99.90
39453;DHT22;25154;-33.684;151.102;2023-01-29T07:47:44;22.50;99.90
39453;DHT22;25154;-33.684;151.102;2023-01-29T07:52:46;22.40;99.90
39453;DHT22;25154;-33.684;151.102;2023-01-29T07:57:58;22.40;99.90
39453;DHT22;25154;-33.684;151.102;2023-01-29T08:03:11;22.50;99.90
39453;DHT22;25154;-33.684;151.102;2023-01-29T08:08:14;22.50;99.90
39453;DHT22;25154;-33.684;151.102;2023-01-29T08:13:17;22.40;99.90
39453;DHT22;25154;-33.684;151.102;2023-01-29T08:18:19;22.30;99.90
39453;DHT22;25154;-33.684;151.102;2023-01-29T08:23:21;22.30;99.90
39453;DHT22;25154;-33.684;151.102;2023-01-29T08:28:24;21.20;99.90
39453;DHT22;25154;-33.684;151.102;2023-01-29T08:33:26;22.30;99.90
39453;DHT22;25154;-33.684;151.102;2023-01-29T08:38:29;22.20;99.90
39453;DHT22;25154;-33.684;151.102;2023-01-29T08:43:34;22.00;99.90
39453;DHT22;25154;-33.684;151.102;2023-01-29T08:48:41;22.00;99.90
39453;DHT22;25154;-33.684;151.102;2023-01-29T08:53:43;22.00;99.90
39453;DHT22;25154;-33.684;151.102;2023-01-29T08:58:45;21.90;99.90
39453;DHT22;25154;-33.684;151.102;2023-01-29T09:03:48;21.80;99.90
39453;DHT22;25154;-33.684;151.102;2023-01-29T09:08:51;21.80;99.90
39453;DHT22;25154;-33.684;151.102;2023-01-29T09:13:53;21.80;99.90
39453;DHT22;25154;-33.684;151.102;2023-01-29T09:18:55;21.70;99.90
39453;DHT22;25154;-33.684;151.102;2023-01-29T09:23:58;21.70;99.90
39453;DHT22;25154;-33.684;151.102;2023-01-29T09:29:00;21.60;99.90
39453;DHT22;25154;-33.684;151.102;2023-01-29T09:34:02;21.50;99.90
39453;DHT22;25154;-33.684;151.102;2023-01-29T09:39:05;21.50;99.90
39453;DHT22;25154;-33.684;151.102;2023-01-29T09:44:18;21.50;99.90
39453;DHT22;25154;-33.684;151.102;2023-01-29T09:49:27;21.50;99.90
39453;DHT22;25154;-33.684;151.102;2023-01-29T09:54:32;21.50;99.90
39453;DHT22;25154;-33.684;151.102;2023-01-29T09:59:35;21.50;99.90
39453;DHT22;25154;-33.684;151.102;2023-01-29T10:04:58;21.40;99.90
39453;DHT22;25154;-33.684;151.102;2023-01-29T10:10:07;21.40;99.90
39453;DHT22;25154;-33.684;151.102;2023-01-29T10:25:48;21.20;99.90
39453;DHT22;25154;-33.684;151.102;2023-01-29T10:31:14;21.30;99.90
39453;DHT22;25154;-33.684;151.102;2023-01-29T10:36:20;21.30;99.90
39453;DHT22;25154;-33.684;151.102;2023-01-29T11:02:54;21.40;99.90
39453;DHT22;25154;-33.684;151.102;2023-01-29T11:08:07;21.40;99.90
39453;DHT22;25154;-33.684;151.102;2023-01-29T11:13:13;21.40;99.90
39453;DHT22;25154;-33.684;151.102;2023-01-29T11:18:16;21.30;99.90
39453;DHT22;25154;-33.684;151.102;2023-01-29T11:23:29;21.20;99.90
39453;DHT22;25154;-33.684;151.102;2023-01-29T11:28:44;20.60;99.90
39453;DHT22;25154;-33.684;151.102;2023-01-29T11:33:49;21.20;99.90
39453;DHT22;25154;-33.684;151.102;2023-01-29T11:39:18;21.40;99.90
39453;DHT22;25154;-33.684;151.102;2023-01-29T11:44:33;21.30;99.90
39453;DHT22;25154;-33.684;151.102;2023-01-29T11:49:38;21.20;99.90
39453;DHT22;25154;-33.684;151.102;2023-01-29T11:59:54;21.20;99.90
39453;DHT22;25154;-33.684;151.102;2023-01-29T12:05:01;21.10;99.90
39453;DHT22;25154;-33.684;151.102;2023-01-29T12:10:04;21.00;99.90
39453;DHT22;25154;-33.684;151.102;2023-01-29T12:15:17;21.00;99.90
39453;DHT22;25154;-33.684;151.102;2023-01-29T12:20:26;21.00;99.90
39453;DHT22;25154;-33.684;151.102;2023-01-29T12:36:36;21.10;99.90
39453;DHT22;25154;-33.684;151.102;2023-01-29T12:41:44;21.00;99.90
39453;DHT22;25154;-33.684;151.102;2023-01-29T12:46:55;21.00;99.90
39453;DHT22;25154;-33.684;151.102;2023-01-29T12:57:41;21.10;99.90
39453;DHT22;25154;-33.684;151.102;2023-01-29T13:02:49;21.10;99.90
39453;DHT22;25154;-33.684;151.102;2023-01-29T13:08:15;21.10;99.90
39453;DHT22;25154;-33.684;151.102;2023-01-29T13:18:58;20.90;99.90
39453;DHT22;25154;-33.684;151.102;2023-01-29T13:24:19;20.90;99.90
39453;DHT22;25154;-33.684;151.102;2023-01-29T13:29:28;20.80;99.90
39453;DHT22;25154;-33.684;151.102;2023-01-29T13:34:44;20.80;99.90
39453;DHT22;25154;-33.684;151.102;2023-01-29T13:39:50;20.80;99.90
39453;DHT22;25154;-33.684;151.102;2023-01-29T13:44:55;20.70;99.90
39453;DHT22;25154;-33.684;151.102;2023-01-29T13:55:50;20.70;99.90
39453;DHT22;25154;-33.684;151.102;2023-01-29T14:00:53;20.70;99.90
39453;DHT22;25154;-33.684;151.102;2023-01-29T14:06:01;20.70;99.90
39453;DHT22;25154;-33.684;151.102;2023-01-29T14:21:21;20.70;99.90
39453;DHT22;25154;-33.684;151.102;2023-01-29T14:52:39;20.70;99.90
39453;DHT22;25154;-33.684;151.102;2023-01-29T14:57:42;20.60;99.90
39453;DHT22;25154;-33.684;151.102;2023-01-29T15:02:45;20.70;99.90
39453;DHT22;25154;-33.684;151.102;2023-01-29T15:08:06;20.70;99.90
39453;DHT22;25154;-33.684;151.102;2023-01-29T15:18:39;20.60;99.90
39453;DHT22;25154;-33.684;151.102;2023-01-29T15:23:44;20.50;99.90
39453;DHT22;25154;-33.684;151.102;2023-01-29T15:28:55;20.60;99.90
39453;DHT22;25154;-33.684;151.102;2023-01-29T15:34:01;20.60;99.90
39453;DHT22;25154;-33.684;151.102;2023-01-29T15:44:17;20.70;99.90
39453;DHT22;25154;-33.684;151.102;2023-01-29T15:49:41;20.70;99.90
39453;DHT22;25154;-33.684;151.102;2023-01-29T15:54:44;20.70;99.90
39453;DHT22;25154;-33.684;151.102;2023-01-29T15:59:50;20.70;99.90
39453;DHT22;25154;-33.684;151.102;2023-01-29T16:04:53;20.70;99.90
39453;DHT22;25154;-33.684;151.102;2023-01-29T16:09:57;20.70;99.90
39453;DHT22;25154;-33.684;151.102;2023-01-29T16:15:02;20.70;99.90
39453;DHT22;25154;-33.684;151.102;2023-01-29T16:20:18;20.60;99.90
39453;DHT22;25154;-33.684;151.102;2023-01-29T16:25:21;20.50;99.90
39453;DHT22;25154;-33.684;151.102;2023-01-29T16:30:25;20.50;99.90
39453;DHT22;25154;-33.684;151.102;2023-01-29T16:35:28;21.50;99.90
39453;DHT22;25154;-33.684;151.102;2023-01-29T16:40:33;17.00;99.90
39453;DHT22;25154;-33.684;151.102;2023-01-29T16:45:37;20.40;99.90
39453;DHT22;25154;-33.684;151.102;2023-01-29T16:50:40;20.40;99.90
39453;DHT22;25154;-33.684;151.102;2023-01-29T16:55:43;20.40;99.90
39453;DHT22;25154;-33.684;151.102;2023-01-29T17:00:54;20.40;99.90
39453;DHT22;25154;-33.684;151.102;2023-01-29T17:05:58;20.40;99.90
39453;DHT22;25154;-33.684;151.102;2023-01-29T17:11:01;20.30;99.90
39453;DHT22;25154;-33.684;151.102;2023-01-29T17:21:25;20.30;99.90
39453;DHT22;25154;-33.684;151.102;2023-01-29T17:26:30;20.30;99.90
39453;DHT22;25154;-33.684;151.102;2023-01-29T17:31:32;20.40;99.90
39453;DHT22;25154;-33.684;151.102;2023-01-29T17:36:34;20.40;99.90
39453;DHT22;25154;-33.684;151.102;2023-01-29T17:41:37;20.40;99.90
39453;DHT22;25154;-33.684;151.102;2023-01-29T17:46:40;20.40;99.90
39453;DHT22;25154;-33.684;151.102;2023-01-29T17:51:43;20.30;99.90
39453;DHT22;25154;-33.684;151.102;2023-01-29T17:56:46;20.30;99.90
39453;DHT22;25154;-33.684;151.102;2023-01-29T18:01:50;20.40;99.90
39453;DHT22;25154;-33.684;151.102;2023-01-29T18:06:52;20.30;99.90
39453;DHT22;25154;-33.684;151.102;2023-01-29T18:11:55;20.20;99.90
39453;DHT22;25154;-33.684;151.102;2023-01-29T18:16:57;20.20;99.90
39453;DHT22;25154;-33.684;151.102;2023-01-29T18:21:59;20.20;99.90
39453;DHT22;25154;-33.684;151.102;2023-01-29T18:27:02;20.20;99.90
39453;DHT22;25154;-33.684;151.102;2023-01-29T18:32:04;20.20;99.90
39453;DHT22;25154;-33.684;151.102;2023-01-29T18:37:06;20.30;99.90
39453;DHT22;25154;-33.684;151.102;2023-01-29T18:42:09;20.20;99.90
39453;DHT22;25154;-33.684;151.102;2023-01-29T18:47:11;20.30;99.90
39453;DHT22;25154;-33.684;151.102;2023-01-29T18:52:14;20.40;99.90
39453;DHT22;25154;-33.684;151.102;2023-01-29T18:57:17;20.40;99.90
39453;DHT22;25154;-33.684;151.102;2023-01-29T19:02:19;20.30;99.90
39453;DHT22;25154;-33.684;151.102;2023-01-29T19:07:21;20.30;99.90
39453;DHT22;25154;-33.684;151.102;2023-01-29T19:12:24;20.40;99.90
39453;DHT22;25154;-33.684;151.102;2023-01-29T19:17:26;20.40;99.90
39453;DHT22;25154;-33.684;151.102;2023-01-29T19:22:29;20.40;99.90
39453;DHT22;25154;-33.684;151.102;2023-01-29T19:27:32;20.40;99.90
39453;DHT22;25154;-33.684;151.102;2023-01-29T19:32:34;20.30;99.90
39453;DHT22;25154;-33.684;151.102;2023-01-29T19:37:37;20.40;99.90
39453;DHT22;25154;-33.684;151.102;2023-01-29T19:42:39;20.40;99.90
39453;DHT22;25154;-33.684;151.102;2023-01-29T19:47:42;20.40;99.90
39453;DHT22;25154;-33.684;151.102;2023-01-29T19:52:45;20.40;99.90
39453;DHT22;25154;-33.684;151.102;2023-01-29T19:57:50;20.40;99.90
39453;DHT22;25154;-33.684;151.102;2023-01-29T20:02:53;20.40;99.90
39453;DHT22;25154;-33.684;151.102;2023-01-29T20:07:55;20.40;99.90
39453;DHT22;25154;-33.684;151.102;2023-01-29T20:12:57;20.40;99.90
39453;DHT22;25154;-33.684;151.102;2023-01-29T20:18:00;20.40;99.90
39453;DHT22;25154;-33.684;151.102;2023-01-29T20:23:03;20.40;99.90
39453;DHT22;25154;-33.684;151.102;2023-01-29T20:28:07;20.50;99.90
39453;DHT22;25154;-33.684;151.102;2023-01-29T20:33:12;20.60;99.90
39453;DHT22;25154;-33.684;151.102;2023-01-29T20:38:14;20.60;99.90
39453;DHT22;25154;-33.684;151.102;2023-01-29T20:43:17;20.60;99.90
39453;DHT22;25154;-33.684;151.102;2023-01-29T20:48:19;20.70;99.90
39453;DHT22;25154;-33.684;151.102;2023-01-29T20:53:21;20.70;99.90
39453;DHT22;25154;-33.684;151.102;2023-01-29T20:58:24;20.70;99.90
39453;DHT22;25154;-33.684;151.102;2023-01-29T21:03:26;20.70;99.90
39453;DHT22;25154;-33.684;151.102;2023-01-29T21:08:29;20.70;99.90
39453;DHT22;25154;-33.684;151.102;2023-01-29T21:13:32;20.60;99.90
39453;DHT22;25154;-33.684;151.102;2023-01-29T21:18:34;20.60;99.90
39453;DHT22;25154;-33.684;151.102;2023-01-29T21:23:38;20.60;99.90
39453;DHT22;25154;-33.684;151.102;2023-01-29T21:28:41;20.60;99.90
39453;DHT22;25154;-33.684;151.102;2023-01-29T21:33:45;20.60;99.90
39453;DHT22;25154;-33.684;151.102;2023-01-29T21:38:48;20.60;99.90
39453;DHT22;25154;-33.684;151.102;2023-01-29T21:43:51;20.70;99.90
39453;DHT22;25154;-33.684;151.102;2023-01-29T21:48:55;20.60;99.90
39453;DHT22;25154;-33.684;151.102;2023-01-29T21:53:59;20.70;99.90
39453;DHT22;25154;-33.684;151.102;2023-01-29T21:59:04;20.80;99.90
39453;DHT22;25154;-33.684;151.102;2023-01-29T22:04:07;20.90;99.90
39453;DHT22;25154;-33.684;151.102;2023-01-29T22:09:12;20.90;99.90
39453;DHT22;25154;-33.684;151.102;2023-01-29T22:14:15;21.00;99.90
39453;DHT22;25154;-33.684;151.102;2023-01-29T22:19:20;21.10;99.90
39453;DHT22;25154;-33.684;151.102;2023-01-29T22:24:25;21.20;99.90
39453;DHT22;25154;-33.684;151.102;2023-01-29T22:29:28;21.20;99.90
39453;DHT22;25154;-33.684;151.102;2023-01-29T22:34:30;21.30;99.90
39453;DHT22;25154;-33.684;151.102;2023-01-29T22:39:35;21.10;99.90
39453;DHT22;25154;-33.684;151.102;2023-01-29T22:44:38;21.20;99.90
39453;DHT22;25154;-33.684;151.102;2023-01-29T22:49:40;21.30;99.90
39453;DHT22;25154;-33.684;151.102;2023-01-29T22:54:43;21.40;99.90
39453;DHT22;25154;-33.684;151.102;2023-01-29T22:59:47;22.20;99.90
39453;DHT22;25154;-33.684;151.102;2023-01-29T23:04:52;21.60;99.90
39453;DHT22;25154;-33.684;151.102;2023-01-29T23:09:54;21.50;99.90
39453;DHT22;25154;-33.684;151.102;2023-01-29T23:14:57;21.40;99.90
39453;DHT22;25154;-33.684;151.102;2023-01-29T23:19:59;21.30;99.90
39453;DHT22;25154;-33.684;151.102;2023-01-29T23:25:02;21.30;99.90
39453;DHT22;25154;-33.684;151.102;2023-01-29T23:30:05;21.20;99.90
39453;DHT22;25154;-33.684;151.102;2023-01-29T23:35:07;21.10;99.90
39453;DHT22;25154;-33.684;151.102;2023-01-29T23:40:10;21.20;99.90
39453;DHT22;25154;-33.684;151.102;2023-01-29T23:45:13;21.30;99.90
39453;DHT22;25154;-33.684;151.102;2023-01-29T23:50:15;21.50;99.90
39453;DHT22;25154;-33.684;151.102;2023-01-29T23:55:19;21.60;99.90
